Time;durP1;ratioP1;P1;durP2;ratioP2;P2;SDS_P1;SDS_P2;PMS_P1;PMS_P2;Temp;Humidity;BMP_temperature;BMP_pressure;BME280_temperature;BME280_humidity;BME280_pressure;Samples;Min_cycle;Max_cycle;Signal;HPM_P1;HPM_P2
2023/05/07 00:01:47;;;;;;;60.78;57.78;;;;;;;22.65;47.63;101476.81;5107042;28;20046;-72
2023/05/07 00:04:13;;;;;;;60.00;56.88;;;;;;;22.62;47.44;101478.25;5107122;28;20119;-73
2023/05/07 00:06:38;;;;;;;61.38;58.22;;;;;;;22.61;47.63;101473.88;5092478;28;20076;-73
2023/05/07 00:09:04;;;;;;;61.08;58.08;;;;;;;22.61;47.32;101481.34;5094270;28;20039;-73
2023/05/07 00:11:30;;;;;;;62.15;58.67;;;;;;;22.58;47.68;101469.00;5093014;28;20067;-71
2023/05/07 00:13:55;;;;;;;64.40;61.10;;;;;;;22.56;47.66;101482.25;5095784;28;20464;-74
2023/05/07 00:16:21;;;;;;;63.80;60.53;;;;;;;22.54;47.84;101478.97;5092095;28;20046;-76
2023/05/07 00:18:46;;;;;;;64.72;61.33;;;;;;;22.53;47.65;101474.59;5099866;28;20468;-71
2023/05/07 00:21:12;;;;;;;62.08;58.78;;;;;;;22.52;47.96;101480.41;5101473;28;20438;-72
2023/05/07 00:23:37;;;;;;;61.80;58.58;;;;;;;22.50;47.47;101482.63;5108812;28;20110;-70
2023/05/07 00:26:03;;;;;;;63.17;59.90;;;;;;;22.47;47.50;101478.56;5100458;28;20395;-71
2023/05/07 00:28:29;;;;;;;62.38;58.90;;;;;;;22.46;47.98;101471.44;5103896;28;20023;-73
2023/05/07 00:30:54;;;;;;;59.45;56.45;;;;;;;22.44;47.58;101473.66;5089814;28;20528;-71
2023/05/07 00:33:20;;;;;;;60.55;57.35;;;;;;;22.43;48.05;101472.88;5109401;28;20031;-71
2023/05/07 00:35:46;;;;;;;61.85;58.63;;;;;;;22.41;47.52;101468.78;5094742;28;20074;-72
2023/05/07 00:38:11;;;;;;;60.42;57.25;;;;;;;22.38;47.77;101470.22;5108829;28;20039;-71
2023/05/07 00:40:37;;;;;;;60.78;57.58;;;;;;;22.37;48.05;101468.56;5109058;28;20131;-71
2023/05/07 00:43:02;;;;;;;60.72;57.63;;;;;;;22.34;48.00;101466.41;5113819;28;20020;-71
2023/05/07 00:45:28;;;;;;;62.15;58.90;;;;;;;22.34;48.02;101466.41;5099136;28;20031;-70
2023/05/07 00:48:00;;;;;;;59.63;56.33;;;;;;;22.32;48.01;101462.34;5112571;28;20038;-75
2023/05/07 00:50:29;;;;;;;62.88;59.58;;;;;;;22.30;47.96;101467.31;5100003;28;20453;-76
2023/05/07 00:52:55;;;;;;;59.42;56.42;;;;;;;22.28;48.29;101464.91;5104717;28;20106;-70
2023/05/07 00:55:22;;;;;;;60.33;56.97;;;;;;;22.27;47.90;101462.44;5097325;28;20547;-73
2023/05/07 00:57:49;;;;;;;60.55;57.45;;;;;;;22.26;48.24;101458.88;5109323;28;20114;-72
2023/05/07 01:00:14;;;;;;;60.70;57.50;;;;;;;22.24;47.76;101461.91;5095006;28;20403;-73
2023/05/07 01:02:40;;;;;;;61.80;58.60;;;;;;;22.23;48.02;101460.31;5109329;28;20559;-72
2023/05/07 01:05:10;;;;;;;60.35;57.25;;;;;;;22.21;48.28;101458.97;5095774;28;20141;-74
2023/05/07 01:07:38;;;;;;;59.58;56.47;;;;;;;22.20;47.87;101457.31;5105715;28;20395;-72
2023/05/07 01:10:06;;;;;;;59.33;56.15;;;;;;;22.19;47.77;101461.19;5105484;28;20077;-71
2023/05/07 01:12:32;;;;;;;60.58;57.38;;;;;;;22.17;48.17;101455.16;5103837;28;20032;-69
2023/05/07 01:14:58;;;;;;;58.25;55.25;;;;;;;22.15;48.35;101446.38;5101895;28;20036;-69
2023/05/07 01:17:23;;;;;;;60.78;57.72;;;;;;;22.13;48.33;101443.16;5103399;28;20065;-69
2023/05/07 01:19:49;;;;;;;59.58;56.45;;;;;;;22.12;47.74;101447.00;5100692;28;20048;-69
2023/05/07 01:22:19;;;;;;;57.10;54.20;;;;;;;22.09;47.91;101444.84;5096066;28;20032;-69
2023/05/07 01:24:45;;;;;;;58.15;55.05;;;;;;;22.08;48.36;101421.22;5099508;28;20056;-69
2023/05/07 01:27:10;;;;;;;60.20;57.17;;;;;;;22.07;48.17;101430.59;5093871;28;20071;-70
2023/05/07 01:29:35;;;;;;;60.17;56.72;;;;;;;22.04;48.32;101427.31;5104163;28;20040;-70
2023/05/07 01:32:02;;;;;;;60.45;57.33;;;;;;;22.03;47.86;101424.88;5112142;28;20058;-70
2023/05/07 01:34:31;;;;;;;57.95;54.92;;;;;;;22.03;48.44;101427.63;5111685;28;20360;-70
2023/05/07 01:36:58;;;;;;;59.67;56.58;;;;;;;22.01;47.99;101427.94;5108749;28;20434;-73
2023/05/07 01:39:29;;;;;;;59.30;56.10;;;;;;;22.00;48.42;101431.00;5111751;28;20092;-71
2023/05/07 01:41:59;;;;;;;60.03;56.53;;;;;;;21.98;48.55;101428.53;5113016;28;20047;-71
2023/05/07 01:44:25;;;;;;;56.75;53.83;;;;;;;21.97;48.45;101417.84;5112872;28;20032;-72
2023/05/07 01:46:52;;;;;;;56.75;53.75;;;;;;;21.96;48.11;101417.03;5112366;28;20035;-73
2023/05/07 01:49:18;;;;;;;60.15;57.03;;;;;;;21.95;48.31;101428.34;5110721;27;20088;-71
2023/05/07 01:51:44;;;;;;;59.17;55.95;;;;;;;21.94;48.31;101424.75;5112749;27;20094;-71
2023/05/07 01:54:09;;;;;;;57.05;53.85;;;;;;;21.93;48.04;101411.31;5112839;28;20032;-72
2023/05/07 01:56:35;;;;;;;58.97;55.78;;;;;;;21.91;48.51;101419.88;5101181;28;20028;-70
2023/05/07 01:59:01;;;;;;;59.42;56.33;;;;;;;21.91;48.43;101413.56;5100115;28;20035;-71
2023/05/07 02:01:27;;;;;;;59.83;56.42;;;;;;;21.88;48.55;101420.47;5096027;28;20043;-72
2023/05/07 02:03:53;;;;;;;59.53;56.45;;;;;;;21.88;48.10;101423.22;5106289;28;20395;-73
2023/05/07 02:06:19;;;;;;;56.13;53.13;;;;;;;21.86;48.60;101422.72;5097777;28;20386;-75
2023/05/07 02:08:44;;;;;;;60.42;57.13;;;;;;;21.85;48.37;101414.75;5098632;28;20028;-71
2023/05/07 02:11:10;;;;;;;57.60;54.58;;;;;;;21.83;48.22;101418.63;5099067;28;20117;-72
2023/05/07 02:13:36;;;;;;;58.72;55.63;;;;;;;21.83;48.29;101420.56;5107439;28;20455;-72
2023/05/07 02:16:02;;;;;;;59.55;56.45;;;;;;;21.81;48.57;101420.06;5100330;28;20194;-71
2023/05/07 02:18:28;;;;;;;60.53;56.90;;;;;;;21.79;48.44;101425.03;5107970;28;20059;-75
2023/05/07 02:20:53;;;;;;;58.92;55.72;;;;;;;21.79;48.09;101422.28;5092276;28;20109;-70
2023/05/07 02:23:18;;;;;;;58.58;55.15;;;;;;;21.77;48.54;101422.59;5097390;28;20460;-71
2023/05/07 02:25:44;;;;;;;57.50;54.35;;;;;;;21.76;48.21;101420.94;5095190;28;20074;-73
2023/05/07 02:28:09;;;;;;;58.67;55.25;;;;;;;21.75;48.54;101429.53;5103273;28;20040;-71
2023/05/07 02:30:36;;;;;;;56.65;53.28;;;;;;;21.73;48.83;101427.06;5091799;28;20357;-72
2023/05/07 02:33:02;;;;;;;58.05;54.70;;;;;;;21.72;48.50;101430.94;5093465;28;20460;-71
2023/05/07 02:35:27;;;;;;;60.17;56.97;;;;;;;21.72;48.68;101430.09;5096190;28;20051;-71
2023/05/07 02:37:53;;;;;;;61.38;58.08;;;;;;;21.71;48.59;101428.47;5103444;28;20119;-72
2023/05/07 02:40:18;;;;;;;58.00;54.90;;;;;;;21.69;48.24;101414.22;5098950;28;20035;-72
2023/05/07 02:42:43;;;;;;;55.83;52.90;;;;;;;21.68;48.78;101420.84;5105668;28;20468;-72
2023/05/07 02:45:09;;;;;;;56.88;53.83;;;;;;;21.66;48.32;101425.81;5109462;28;20130;-71
2023/05/07 02:47:35;;;;;;;57.40;54.20;;;;;;;21.64;48.23;101434.34;5110958;28;20036;-71
2023/05/07 02:50:00;;;;;;;57.88;54.67;;;;;;;21.63;48.72;101429.97;5101200;28;20490;-74
2023/05/07 02:52:26;;;;;;;58.30;55.10;;;;;;;21.62;48.27;101428.38;5092475;28;20032;-74
2023/05/07 02:54:51;;;;;;;60.00;56.63;;;;;;;21.61;48.66;101424.78;5096857;28;20055;-75
2023/05/07 02:57:17;;;;;;;58.20;54.97;;;;;;;21.60;48.32;101428.66;5098038;28;20035;-71
2023/05/07 02:59:42;;;;;;;60.35;57.08;;;;;;;21.58;48.57;101428.13;5098143;28;20039;-73
2023/05/07 03:02:08;;;;;;;59.85;56.75;;;;;;;21.56;48.92;101435.84;5092754;28;20036;-71
2023/05/07 03:04:33;;;;;;;57.90;54.75;;;;;;;21.56;48.84;101433.09;5096541;28;20486;-72
2023/05/07 03:06:59;;;;;;;57.50;54.15;;;;;;;21.54;48.50;101429.84;5108680;28;20487;-75
2023/05/07 03:09:24;;;;;;;57.60;54.38;;;;;;;21.53;48.80;101421.91;5107967;28;20055;-75
2023/05/07 03:11:50;;;;;;;57.83;54.60;;;;;;;21.52;48.47;101429.34;5111524;28;20498;-72
2023/05/07 03:14:15;;;;;;;58.72;54.85;;;;;;;21.51;48.92;101429.63;5092783;28;20058;-71
2023/05/07 03:16:40;;;;;;;57.90;54.60;;;;;;;21.50;49.07;101423.31;5096245;28;20035;-74
2023/05/07 03:19:06;;;;;;;59.45;56.00;;;;;;;21.49;48.52;101426.34;5110770;28;20569;-71
2023/05/07 03:21:33;;;;;;;57.05;53.80;;;;;;;21.47;49.10;101421.19;5106104;28;20039;-73
2023/05/07 03:23:59;;;;;;;57.85;54.28;;;;;;;21.45;49.08;101419.84;5095596;28;20159;-73
2023/05/07 03:26:25;;;;;;;56.20;53.00;;;;;;;21.44;49.14;101416.25;5094155;28;20116;-73
2023/05/07 03:28:50;;;;;;;57.95;54.60;;;;;;;21.43;48.80;101417.38;5092860;28;20472;-72
2023/05/07 03:31:16;;;;;;;59.17;55.67;;;;;;;21.43;48.61;101422.06;5104057;28;20097;-71
2023/05/07 03:33:55;;;;;;;58.20;55.03;;;;;;;21.42;48.55;101423.16;5109387;28;20035;-74
2023/05/07 03:36:22;;;;;;;58.42;55.08;;;;;;;21.38;49.03;101426.53;5105607;28;20136;-72
2023/05/07 03:38:48;;;;;;;57.05;53.88;;;;;;;21.37;49.07;101421.31;5103792;28;20102;-75
2023/05/07 03:41:13;;;;;;;58.85;55.45;;;;;;;21.37;48.71;101421.31;5110797;28;20105;-71
2023/05/07 03:43:39;;;;;;;55.50;52.33;;;;;;;21.36;48.89;101425.16;5111590;28;20094;-73
2023/05/07 03:46:05;;;;;;;56.22;53.05;;;;;;;21.35;48.83;101426.28;5093954;28;20032;-73
2023/05/07 03:48:30;;;;;;;57.17;53.85;;;;;;;21.34;49.04;101427.38;5111196;28;20150;-71
2023/05/07 03:50:57;;;;;;;59.70;56.00;;;;;;;21.33;49.00;101429.31;5110716;28;20111;-72
2023/05/07 03:53:22;;;;;;;57.47;54.17;;;;;;;21.32;48.73;101426.88;5111128;28;22060;-71
2023/05/07 03:55:47;;;;;;;56.28;53.13;;;;;;;21.31;48.65;101434.28;5103438;28;20506;-72
2023/05/07 03:58:13;;;;;;;55.95;52.25;;;;;;;21.30;48.83;101438.16;5102923;28;20121;-71
2023/05/07 04:00:39;;;;;;;57.55;54.15;;;;;;;21.29;49.12;101438.47;5101379;28;20166;-71
2023/05/07 04:03:06;;;;;;;55.42;52.33;;;;;;;21.28;49.33;101434.91;5103173;28;20651;-72
2023/05/07 04:05:31;;;;;;;59.00;55.65;;;;;;;21.27;49.27;101435.19;5099220;28;20170;-71
2023/05/07 04:08:00;;;;;;;59.63;56.22;;;;;;;21.25;48.89;101427.25;5103882;28;20127;-71
2023/05/07 04:10:26;;;;;;;57.30;54.10;;;;;;;21.25;48.84;101426.44;5101063;28;20039;-75
2023/05/07 04:12:51;;;;;;;56.88;53.67;;;;;;;21.23;49.01;101437.72;5099455;28;20096;-70
2023/05/07 04:15:17;;;;;;;57.40;54.05;;;;;;;21.22;49.24;101436.09;5113428;28;20538;-73
2023/05/07 04:17:43;;;;;;;57.33;54.03;;;;;;;21.22;49.29;101438.84;5098448;28;20032;-71
2023/05/07 04:20:15;;;;;;;56.00;52.90;;;;;;;21.22;49.54;101443.50;5108138;28;20510;-72
2023/05/07 04:22:41;;;;;;;58.67;54.95;;;;;;;21.21;49.00;101436.38;5111258;28;20475;-71
2023/05/07 04:25:08;;;;;;;55.30;51.92;;;;;;;21.18;49.08;101443.28;5101674;28;20046;-73
2023/05/07 04:27:34;;;;;;;55.20;51.95;;;;;;;21.17;48.97;101438.94;5103619;28;20054;-74
2023/05/07 04:30:00;;;;;;;56.30;53.00;;;;;;;21.16;49.17;101445.50;5097935;28;20468;-72
2023/05/07 04:32:26;;;;;;;55.33;51.67;;;;;;;21.14;49.09;101437.59;5095897;28;20051;-75
2023/05/07 04:34:52;;;;;;;56.65;53.03;;;;;;;21.14;48.97;101437.59;5111633;28;20398;-72
2023/05/07 04:37:17;;;;;;;56.28;52.97;;;;;;;21.13;49.50;101440.63;5112872;28;20055;-72
2023/05/07 04:39:42;;;;;;;55.58;52.25;;;;;;;21.12;49.52;101445.31;5107305;28;20490;-71
2023/05/07 04:42:08;;;;;;;55.92;52.75;;;;;;;21.11;48.99;101443.66;5107059;28;20036;-72
2023/05/07 04:44:35;;;;;;;54.35;51.15;;;;;;;21.10;49.13;101438.47;5100075;28;20085;-71
2023/05/07 04:47:00;;;;;;;54.38;51.15;;;;;;;21.10;49.56;101435.72;5113447;28;20039;-74
2023/05/07 04:49:26;;;;;;;55.25;51.95;;;;;;;21.09;49.13;101445.91;5102739;28;20449;-73
2023/05/07 04:51:51;;;;;;;55.25;52.05;;;;;;;21.08;49.53;101446.19;5113055;28;20096;-73
2023/05/07 04:54:17;;;;;;;53.67;50.55;;;;;;;21.07;49.55;101448.13;5105307;28;20123;-72
2023/05/07 04:56:42;;;;;;;54.42;51.08;;;;;;;21.07;49.09;101447.31;5100652;28;20032;-72
2023/05/07 04:59:08;;;;;;;56.05;52.83;;;;;;;21.06;49.38;101453.91;5109319;28;20040;-74
2023/05/07 05:01:33;;;;;;;56.25;52.75;;;;;;;21.05;49.40;101452.28;5101995;28;20040;-72
2023/05/07 05:04:00;;;;;;;55.45;52.17;;;;;;;21.03;49.69;101455.31;5107863;28;20032;-71
2023/05/07 05:06:25;;;;;;;55.85;52.63;;;;;;;21.02;49.15;101447.38;5108069;28;20387;-72
2023/05/07 05:08:51;;;;;;;54.20;51.08;;;;;;;21.02;49.76;101456.44;5098140;28;20478;-71
2023/05/07 05:11:16;;;;;;;55.47;52.05;;;;;;;21.02;49.74;101455.63;5106933;28;20503;-73
2023/05/07 05:13:41;;;;;;;53.67;50.53;;;;;;;21.01;49.75;101456.72;5104130;28;20118;-76
2023/05/07 05:16:07;;;;;;;55.25;51.88;;;;;;;20.99;49.31;101454.28;5109984;28;20035;-72
2023/05/07 05:18:33;;;;;;;54.78;51.25;;;;;;;20.99;49.34;101459.78;5094849;28;20116;-72
2023/05/07 05:20:58;;;;;;;58.42;54.55;;;;;;;20.99;49.71;101467.19;5096373;28;20039;-74
2023/05/07 05:23:23;;;;;;;55.35;52.05;;;;;;;20.98;49.28;101460.88;5111923;28;20035;-72
2023/05/07 05:25:49;;;;;;;58.35;54.55;;;;;;;20.98;49.65;101469.13;5100503;28;20028;-72
2023/05/07 05:28:15;;;;;;;56.03;52.50;;;;;;;20.97;49.54;101470.25;5096303;28;20072;-72
2023/05/07 05:30:40;;;;;;;55.80;52.40;;;;;;;20.96;49.97;101469.44;5075455;28;20032;-71
2023/05/07 05:33:05;;;;;;;55.75;52.08;;;;;;;20.96;49.58;101468.59;5092995;28;20122;-72
2023/05/07 05:35:31;;;;;;;56.92;53.13;;;;;;;20.95;50.04;101470.53;5096405;28;20036;-72
2023/05/07 05:37:57;;;;;;;52.13;48.80;;;;;;;20.95;49.69;101473.28;5093138;28;20058;-69
2023/05/07 05:40:22;;;;;;;56.75;52.92;;;;;;;20.94;49.67;101474.41;5098663;28;20040;-72
2023/05/07 05:42:47;;;;;;;55.42;52.00;;;;;;;20.93;49.92;101483.72;5110071;28;20032;-73
2023/05/07 05:45:13;;;;;;;54.40;50.72;;;;;;;20.93;50.26;101480.16;5095588;28;20043;-72
2023/05/07 05:47:39;;;;;;;57.35;53.35;;;;;;;20.93;50.24;101480.16;5093571;28;20036;-73
2023/05/07 05:50:06;;;;;;;62.70;58.30;;;;;;;20.92;49.94;101484.03;5101816;28;20047;-73
2023/05/07 05:52:31;;;;;;;57.72;54.05;;;;;;;20.91;49.94;101477.72;5109367;28;20036;-71
2023/05/07 05:54:57;;;;;;;59.15;55.00;;;;;;;20.92;50.47;101490.34;5095297;28;20165;-72
2023/05/07 05:57:22;;;;;;;60.45;55.92;;;;;;;20.92;50.48;101484.03;5101597;28;20119;-71
2023/05/07 05:59:48;;;;;;;61.30;57.10;;;;;;;20.90;50.60;101487.06;5099539;28;20039;-70
2023/05/07 06:02:13;;;;;;;58.70;54.80;;;;;;;20.89;50.10;101479.94;5101119;28;20048;-71
2023/05/07 06:04:38;;;;;;;64.50;59.95;;;;;;;20.91;50.21;101479.66;5094673;28;20032;-70
2023/05/07 06:07:04;;;;;;;57.50;53.67;;;;;;;20.89;50.77;101482.69;5099374;28;20434;-72
2023/05/07 06:09:30;;;;;;;56.97;53.13;;;;;;;20.88;50.84;101481.03;5094612;28;20039;-70
2023/05/07 06:11:55;;;;;;;59.50;55.50;;;;;;;20.89;50.83;101484.59;5112051;28;20032;-70
2023/05/07 06:14:21;;;;;;;57.35;53.65;;;;;;;20.87;50.54;101484.91;5111738;28;20498;-71
2023/05/07 06:16:46;;;;;;;54.50;51.15;;;;;;;20.86;50.40;101482.44;5104284;28;20392;-71
2023/05/07 06:19:11;;;;;;;59.22;54.78;;;;;;;20.86;50.43;101480.53;5110701;28;20044;-74
2023/05/07 06:21:39;;;;;;;58.35;54.35;;;;;;;20.86;50.92;101487.94;5103112;28;20036;-71
2023/05/07 06:24:04;;;;;;;55.85;51.92;;;;;;;20.87;51.16;101489.59;5092834;28;20032;-71
2023/05/07 06:26:30;;;;;;;58.13;54.00;;;;;;;20.86;51.00;101486.00;5104853;28;20467;-70
2023/05/07 06:28:55;;;;;;;59.42;55.20;;;;;;;20.87;50.78;101481.34;5095957;28;20106;-70
2023/05/07 06:31:21;;;;;;;59.95;55.85;;;;;;;20.87;51.13;101492.34;5096955;28;20663;-71
2023/05/07 06:33:46;;;;;;;60.30;56.03;;;;;;;20.87;50.99;101493.16;5106780;28;20445;-72
2023/05/07 06:36:12;;;;;;;58.13;54.20;;;;;;;20.85;50.81;101489.88;5104654;28;20419;-74
2023/05/07 06:38:38;;;;;;;58.28;54.33;;;;;;;20.86;51.04;101504.41;5098085;28;20360;-73
2023/05/07 06:41:03;;;;;;;57.75;53.85;;;;;;;20.86;50.94;101501.69;5101842;28;20463;-73
2023/05/07 06:43:29;;;;;;;60.83;55.97;;;;;;;20.86;51.55;101501.69;5111818;28;20102;-72
2023/05/07 06:45:54;;;;;;;58.08;53.85;;;;;;;20.86;51.25;101507.16;5093629;28;20103;-71
2023/05/07 06:48:19;;;;;;;61.70;57.22;;;;;;;20.85;51.52;101500.88;5101681;28;20044;-71
2023/05/07 06:50:45;;;;;;;57.88;53.85;;;;;;;20.85;51.51;101500.88;5096234;28;20035;-71
2023/05/07 06:53:10;;;;;;;59.63;55.58;;;;;;;20.85;51.59;101500.88;5100167;28;20046;-71
2023/05/07 06:55:38;;;;;;;61.25;57.08;;;;;;;20.85;51.75;101497.31;5103898;28;20114;-72
2023/05/07 06:58:03;;;;;;;61.33;56.95;;;;;;;20.86;51.70;101501.69;5094281;28;20445;-70
2023/05/07 07:00:29;;;;;;;60.25;56.20;;;;;;;20.88;51.83;101502.22;5103380;28;20143;-71
2023/05/07 07:02:55;;;;;;;63.42;58.58;;;;;;;20.87;52.16;101504.13;5106090;28;20055;-71
2023/05/07 07:05:20;;;;;;;59.90;55.65;;;;;;;20.86;51.80;101496.19;5104201;28;20036;-69
2023/05/07 07:07:52;;;;;;;60.70;56.35;;;;;;;20.86;51.65;101504.41;5111662;28;20433;-72
2023/05/07 07:10:21;;;;;;;62.55;57.85;;;;;;;20.85;51.96;101498.13;5096717;28;20028;-72
2023/05/07 07:12:47;;;;;;;59.25;54.83;;;;;;;20.87;52.07;101501.41;5109482;28;20038;-70
2023/05/07 07:15:13;;;;;;;60.75;56.35;;;;;;;20.87;52.00;101511.56;5095982;28;20047;-73
2023/05/07 07:17:39;;;;;;;60.97;56.75;;;;;;;20.87;52.36;101506.88;5098829;28;20084;-70
2023/05/07 07:20:05;;;;;;;59.80;55.20;;;;;;;20.86;51.86;101505.22;5099322;28;20114;-72
2023/05/07 07:22:30;;;;;;;60.10;55.90;;;;;;;20.86;52.21;101504.41;5102321;28;20040;-72
2023/05/07 07:24:56;;;;;;;65.57;61.03;;;;;;;20.88;51.89;101507.69;5109284;28;20019;-73
2023/05/07 07:27:21;;;;;;;65.60;60.63;;;;;;;20.90;52.28;101513.72;5094344;28;20040;-71
2023/05/07 07:29:47;;;;;;;63.50;59.08;;;;;;;20.89;52.00;101512.91;5099395;28;20468;-71
2023/05/07 07:32:12;;;;;;;65.32;60.20;;;;;;;20.90;52.59;101511.78;5102840;28;20051;-71
2023/05/07 07:34:37;;;;;;;64.03;59.58;;;;;;;20.91;52.88;101512.59;5112254;28;20049;-70
2023/05/07 07:37:05;;;;;;;63.92;59.03;;;;;;;20.92;53.23;101517.81;5110901;28;20050;-72
2023/05/07 07:39:32;;;;;;;61.08;56.40;;;;;;;20.93;53.38;101518.63;5110315;28;20489;-70
2023/05/07 07:41:57;;;;;;;59.55;55.08;;;;;;;20.93;53.36;101524.09;5103153;28;20520;-71
2023/05/07 07:44:22;;;;;;;63.35;58.58;;;;;;;20.93;52.82;101524.09;5091302;28;20032;-72
2023/05/07 07:46:48;;;;;;;61.40;57.20;;;;;;;20.94;52.83;101526.56;5111314;28;20031;-71
2023/05/07 07:49:14;;;;;;;64.60;59.88;;;;;;;20.95;53.16;101527.38;5115595;28;20054;-71
2023/05/07 07:51:40;;;;;;;65.25;60.25;;;;;;;20.95;53.62;101528.19;5107449;28;20378;-73
2023/05/07 07:54:05;;;;;;;63.90;59.00;;;;;;;20.95;53.20;101525.44;5115890;28;20565;-71
2023/05/07 07:56:33;;;;;;;64.45;59.17;;;;;;;20.97;53.15;101527.91;5114957;28;20032;-72
2023/05/07 07:58:58;;;;;;;61.45;57.28;;;;;;;20.99;53.69;101524.84;5112291;28;20035;-72
2023/05/07 08:01:23;;;;;;;63.47;58.88;;;;;;;20.98;53.76;101523.22;5104621;28;20058;-71
2023/05/07 08:03:49;;;;;;;65.90;60.80;;;;;;;21.00;53.78;101529.25;5114946;28;20093;-70
2023/05/07 08:06:15;;;;;;;66.70;61.55;;;;;;;21.01;53.38;101530.88;5111874;28;20039;-72
2023/05/07 08:08:40;;;;;;;67.07;62.15;;;;;;;21.02;54.06;101530.59;5103415;28;20118;-72
2023/05/07 08:11:06;;;;;;;60.45;56.35;;;;;;;21.02;53.89;101527.03;5099896;28;20054;-70
2023/05/07 08:13:31;;;;;;;66.90;62.15;;;;;;;21.04;54.00;101531.13;5107794;28;20421;-71
2023/05/07 08:15:57;;;;;;;66.80;61.63;;;;;;;21.05;53.56;101535.50;5097801;28;20028;-70
2023/05/07 08:18:24;;;;;;;69.90;64.57;;;;;;;21.08;54.42;101536.84;5107334;28;20071;-71
2023/05/07 08:20:50;;;;;;;67.03;61.97;;;;;;;21.09;54.57;101532.97;5101797;28;20071;-71
2023/05/07 08:23:15;;;;;;;64.60;59.75;;;;;;;21.10;54.75;101543.66;5112711;28;20467;-71
2023/05/07 08:25:42;;;;;;;64.65;59.92;;;;;;;21.12;54.31;101544.19;5104576;28;20035;-71
2023/05/07 08:28:08;;;;;;;67.50;62.40;;;;;;;21.13;54.80;101540.31;5104460;28;20024;-73
2023/05/07 08:30:33;;;;;;;64.38;59.90;;;;;;;21.13;54.42;101548.56;5094572;28;20456;-72
2023/05/07 08:33:00;;;;;;;63.63;59.03;;;;;;;21.13;54.58;101545.81;5096000;28;20056;-71
2023/05/07 08:35:26;;;;;;;67.47;62.47;;;;;;;21.16;54.40;101547.16;5098360;28;20032;-71
2023/05/07 08:37:52;;;;;;;65.82;61.13;;;;;;;21.18;54.42;101553.19;5109213;28;20035;-71
2023/05/07 08:40:17;;;;;;;61.40;57.10;;;;;;;21.17;53.88;101546.06;5093969;28;20047;-71
2023/05/07 08:42:44;;;;;;;66.85;61.97;;;;;;;21.20;53.89;101550.97;5094673;28;20077;-72
2023/05/07 08:45:10;;;;;;;61.42;57.10;;;;;;;21.22;54.24;101548.75;5108673;28;20387;-70
2023/05/07 08:47:43;;;;;;;66.78;61.95;;;;;;;21.25;54.57;101558.34;5100280;27;20039;-71
2023/05/07 08:50:09;;;;;;;58.72;54.78;;;;;;;21.23;54.24;101555.88;5096048;28;20028;-70
2023/05/07 08:52:35;;;;;;;60.42;56.60;;;;;;;21.24;53.56;101559.44;5096407;28;20024;-72
2023/05/07 08:55:02;;;;;;;59.38;55.65;;;;;;;21.28;53.52;101560.50;5109400;28;20028;-71
2023/05/07 08:57:28;;;;;;;66.97;62.15;;;;;;;21.31;53.96;101562.63;5093837;28;20525;-71
2023/05/07 08:59:53;;;;;;;64.53;60.35;;;;;;;21.33;54.22;101557.66;5098749;28;20027;-71
2023/05/07 09:02:19;;;;;;;65.45;60.50;;;;;;;21.34;54.36;101557.38;5104398;28;20062;-75
2023/05/07 09:04:44;;;;;;;67.30;62.33;;;;;;;21.38;54.64;101561.19;5107020;28;20456;-71
2023/05/07 09:07:10;;;;;;;64.28;60.08;;;;;;;21.38;54.48;101560.34;5087068;28;20036;-72
2023/05/07 09:09:35;;;;;;;67.00;62.50;;;;;;;21.37;54.12;101551.28;5100837;27;20040;-72
2023/05/07 09:12:01;;;;;;;67.53;63.00;;;;;;;21.41;53.99;101550.72;5111130;28;20077;-72
2023/05/07 09:14:27;;;;;;;66.45;61.95;;;;;;;21.42;53.81;101553.19;5102972;28;20039;-72
2023/05/07 09:16:53;;;;;;;64.82;60.45;;;;;;;21.45;53.80;101546.28;5099683;27;20036;-72
2023/05/07 09:19:26;;;;;;;63.63;58.88;;;;;;;21.48;54.28;101551.19;5107827;28;20035;-72
2023/05/07 09:22:06;;;;;;;65.70;61.40;;;;;;;21.50;54.33;101560.75;5092677;28;20036;-72
2023/05/07 09:24:34;;;;;;;67.85;62.97;;;;;;;21.52;54.56;101558.53;5092346;28;20070;-72
2023/05/07 09:27:06;;;;;;;67.97;63.13;;;;;;;21.53;54.04;101565.66;5093577;28;20384;-72
2023/05/07 09:29:35;;;;;;;68.93;64.40;;;;;;;21.55;54.60;101552.44;5093170;28;20101;-72
2023/05/07 09:32:01;;;;;;;;;;;;;;;21.65;53.96;101556.16;5094020;28;20106;-73
2023/05/07 09:34:26;;;;;;;66.03;61.63;;;;;;;21.58;54.57;101557.34;5099025;28;20294;-72
2023/05/07 09:36:53;;;;;;;65.95;61.08;;;;;;;21.57;54.46;101560.38;5092199;28;20086;-73
2023/05/07 09:39:19;;;;;;;67.80;62.95;;;;;;;21.60;54.65;101559.81;5093566;28;20061;-75
2023/05/07 09:41:46;;;;;;;65.75;61.28;;;;;;;21.63;54.30;101558.38;5093361;28;20031;-72
2023/05/07 09:44:12;;;;;;;68.90;64.22;;;;;;;21.65;54.45;101569.91;5093063;28;20465;-74
2023/05/07 09:46:41;;;;;;;66.50;62.03;;;;;;;21.68;54.36;101558.31;5092819;28;20062;-72
2023/05/07 09:49:13;;;;;;;72.00;66.82;;;;;;;21.71;54.34;101564.03;5093531;28;20028;-74
2023/05/07 09:51:48;;;;;;;70.72;65.63;;;;;;;21.72;54.92;101568.44;5093061;28;20076;-73
2023/05/07 09:54:13;;;;;;;64.97;60.60;;;;;;;21.72;54.25;101557.44;5093021;28;20118;-71
2023/05/07 09:56:41;;;;;;;65.93;61.80;;;;;;;21.74;54.25;101552.41;5094666;28;20432;-71
2023/05/07 09:59:07;;;;;;;67.35;62.85;;;;;;;21.75;54.13;101551.31;5092481;28;20126;-76
2023/05/07 10:01:35;;;;;;;70.90;65.90;;;;;;;21.79;54.48;101552.34;5112017;27;20043;-73
2023/05/07 10:04:03;;;;;;;71.30;66.40;;;;;;;21.81;53.97;101561.13;5094214;28;20032;-71
2023/05/07 10:06:30;;;;;;;72.75;67.85;;;;;;;21.83;54.28;101553.38;5100534;28;20485;-71
2023/05/07 10:08:56;;;;;;;63.15;59.25;;;;;;;21.85;54.26;101558.59;5109956;27;20125;-72
2023/05/07 10:11:22;;;;;;;70.75;65.63;;;;;;;21.87;53.69;101569.28;5091891;28;20116;-72
2023/05/07 10:13:48;;;;;;;72.90;67.53;;;;;;;21.90;54.06;101564.03;5092597;28;20027;-71
2023/05/07 10:16:14;;;;;;;72.55;67.45;;;;;;;21.94;54.33;101559.53;5093960;28;20541;-79
2023/05/07 10:18:40;;;;;;;72.03;67.18;;;;;;;21.98;54.24;101557.03;5109841;28;20034;-74
2023/05/07 10:21:20;;;;;;;67.55;62.75;;;;;;;22.02;54.57;101569.03;5100982;28;20400;-72
2023/05/07 10:23:59;;;;;;;71.47;66.38;;;;;;;22.06;54.59;101569.28;5092416;28;20032;-71
2023/05/07 10:26:26;;;;;;;68.65;63.95;;;;;;;22.10;54.81;101570.28;5093001;28;20040;-75
2023/05/07 10:28:57;;;;;;;65.18;61.10;;;;;;;22.09;54.42;101572.22;5110412;28;20027;-72
2023/05/07 10:31:28;;;;;;;68.85;64.15;;;;;;;22.13;54.42;101573.28;5098409;28;20054;-71
2023/05/07 10:33:56;;;;;;;67.90;63.33;;;;;;;22.14;54.26;101569.41;5092135;28;20032;-80
2023/05/07 10:36:23;;;;;;;64.90;60.80;;;;;;;22.19;54.17;101577.59;5074449;28;20085;-74
2023/05/07 10:38:49;;;;;;;65.57;61.33;;;;;;;22.21;53.89;101569.84;5093284;28;20120;-72
2023/05/07 10:41:16;;;;;;;65.32;61.33;;;;;;;22.27;54.16;101580.78;5104325;28;20115;-78
2023/05/07 10:43:43;;;;;;;68.55;63.78;;;;;;;22.30;53.67;101574.66;5112028;28;20055;-76
2023/05/07 10:46:17;;;;;;;64.63;60.63;;;;;;;22.34;53.32;101583.97;5112164;28;20080;-71
2023/05/07 10:49:06;;;;;;;66.00;61.38;;;;;;;22.37;53.66;101581.41;5100054;28;20028;-71
2023/05/07 10:51:35;;;;;;;61.55;57.58;;;;;;;22.37;53.19;101575.91;5102693;28;20172;-77
2023/05/07 10:54:09;;;;;;;65.85;62.03;;;;;;;22.42;53.39;101581.31;5092393;28;20570;-72
2023/05/07 10:56:35;;;;;;;65.78;61.88;;;;;;;22.44;53.24;101584.59;5091970;28;20028;-73
2023/05/07 10:59:23;;;;;;;67.00;62.70;;;;;;;22.50;53.44;101582.56;5092183;28;20028;-72
2023/05/07 11:01:49;;;;;;;66.88;62.78;;;;;;;22.51;53.40;101578.72;5103128;28;20039;-72
2023/05/07 11:04:15;;;;;;;69.75;65.55;;;;;;;22.56;53.39;101586.06;5092195;28;20119;-72
2023/05/07 11:06:41;;;;;;;69.18;65.15;;;;;;;22.58;52.96;101589.31;5090407;28;20028;-72